Latest Weather Observations for Kingaroy

IDQ60801

Issued at 6:32 am EST Saturday 20 December 2014 (issued every 30 minutes, with the page automatically refreshed every 10 minutes)

About weather observations | Map of weather stations | Latest weather observations for QLD | Other Formats
Station Details ID: 040922 Name: KINGAROY AIRPORT Lat: -26.57 Lon: 151.84 Height: 433.67 m
Data from the previous 72 hours. | See also: Recent months at Kingaroy
Date/Time
EST
Temp
°C
App
Temp
°C
Dew
Point
Rel
Hum
%
Delta-T
°C
Wind Press
QNH
hPa
Press
MSL
hPa
Rain
since 9 am
mm
Dir
 
Spd
km/h
Gust
km/h
Spd
kts
Gust
kts
20/06:30am 20.6 20.6 18.2 86 1.5 ESE 15 22 8 12 1016.2 1013.9 0.0
20/06:00am 20.1 20.8 17.9 87 1.4 ESE 11 15 6 8 1015.9 1013.6 0.0
20/05:30am 19.6 20.3 17.9 90 1.1 ESE 11 17 6 9 1015.5 1013.2 0.0
20/05:00am 19.3 19.9 17.8 91 0.9 ESE 11 19 6 10 1015.1 1012.8 0.0
20/04:30am 19.3 20.2 17.6 90 1.1 ESE 9 13 5 7 1014.7 1012.3 0.0
20/04:00am 19.8 20.2 17.2 85 1.6 ESE 11 19 6 10 1014.4 1012.0 0.0
20/03:30am 19.1 19.9 16.3 84 1.7 SE 7 11 4 6 1014.2 1011.8 0.0
20/03:00am 18.7 20.5 15.4 81 2.0 CALM 0 6 0 3 1014.1 1011.7 0.0
20/02:30am 18.8 19.4 15.3 80 2.1 SSE 6 9 3 5 1014.1 1011.7 0.0
20/02:00am 19.4 19.9 14.9 75 2.7 ESE 6 11 3 6 1014.0 1011.6 0.0
20/01:30am 19.9 19.7 14.7 72 3.1 E 9 15 5 8 1014.1 1011.7 0.0
20/01:00am 20.6 20.0 15.6 73 3.0 E 13 17 7 9 1014.2 1011.8 0.0
20/12:30am 20.0 21.2 16.8 82 2.0 SSE 6 7 3 4 1014.4 1012.0 0.0
20/12:00am 20.3 19.4 16.9 81 2.1 SSE 17 24 9 13 1014.3 1011.9 0.0
 
Date/Time
EST
Temp
°C
App
Temp
°C
Dew
Point
Rel
Hum
%
Delta-T
°C
Wind Press
QNH
hPa
Press
MSL
hPa
Rain
since 9 am
mm
Dir
 
Spd
km/h
Gust
km/h
Spd
kts
Gust
kts
19/11:30pm 18.8 19.2 16.2 85 1.6 ESE 9 11 5 6 1014.4 1012.0 0.0
19/11:00pm 18.7 20.1 16.5 87 1.3 ESE 4 9 2 5 1014.5 1012.1 0.0
19/10:30pm 18.6 20.7 16.2 86 1.5 CALM 0 0 0 0 1014.7 1012.3 0.0
19/10:00pm 19.1 20.8 16.3 84 1.7 SW 2 6 1 3 1014.2 1011.8 0.0
19/09:30pm 19.7 20.4 16.2 80 2.1 E 7 7 4 4 1014.0 1011.6 0.0
19/09:00pm 20.5 20.8 15.9 75 2.8 ESE 9 11 5 6 1013.8 1011.5 0.0
19/08:30pm 20.9 22.9 16.1 74 2.9 CALM 0 0 0 0 1013.6 1011.3 0.0
19/08:00pm 21.6 22.4 15.9 70 3.5 E 6 9 3 5 1013.5 1011.2 0.0
19/07:30pm 22.6 24.8 17.5 73 3.2 ESE 2 7 1 4 1013.3 1011.0 0.0
19/07:00pm 25.4 26.5 13.6 48 7.1 CALM 0 0 0 0 1013.0 1010.7 0.0
19/06:30pm 26.9 26.8 13.3 43 8.2 SSW 6 7 3 4 1012.8 1010.4 0.0
19/06:00pm 29.1 28.7 12.9 37 9.7 SSW 7 13 4 7 1012.5 1010.1 0.0
19/05:30pm 29.5 26.3 10.1 30 11.2 SSW 17 24 9 13 1012.3 1009.9 0.0
19/05:00pm 29.3 26.6 10.4 31 10.9 SW 15 20 8 11 1012.0 1009.6 0.0
19/04:30pm 30.2 27.1 11.7 32 11.0 SSW 19 30 10 16 1011.9 1009.5 0.0
19/04:00pm 30.2 27.1 10.2 29 11.6 SSW 17 26 9 14 1011.8 1009.4 0.0
19/03:30pm 30.7 27.8 11.1 30 11.5 SSW 17 24 9 13 1011.7 1009.3 0.0
19/03:00pm 30.4 27.0 10.4 29 11.6 S 19 26 10 14 1011.9 1009.5 0.0
19/02:30pm 30.2 26.7 10.2 29 11.6 SSW 19 26 10 14 1012.2 1009.8 0.0
19/02:00pm 30.3 26.8 8.7 26 12.2 SW 17 28 9 15 1012.4 1010.0 0.0
19/01:30pm 30.0 27.2 11.5 32 10.9 SSW 17 26 9 14 1012.7 1010.3 0.0
19/01:00pm 29.7 26.2 10.8 31 11.0 SSE 20 28 11 15 1012.9 1010.6 0.0
19/12:30pm 28.3 28.0 14.5 43 8.5 SSW 9 20 5 11 1013.1 1010.8 0.0
19/12:00pm 28.6 28.1 16.8 48 7.5 WSW 15 22 8 12 1013.4 1011.1 0.0
19/11:30am 27.0 26.4 15.7 50 7.0 SW 13 22 7 12 1013.7 1011.4 0.0
19/11:00am 27.2 26.8 16.2 51 6.9 SSW 13 24 7 13 1013.8 1011.5 0.0
19/10:30am 25.9 27.1 18.3 63 4.9 WNW 9 15 5 8 1014.2 1011.8 0.0
19/10:00am 24.3 24.8 17.5 66 4.3 W 11 19 6 10 1014.3 1011.9 0.0
19/09:30am 24.3 25.9 18.2 68 3.9 WSW 7 15 4 8 1014.3 1011.9 0.0
19/09:00am 22.4 23.8 17.8 75 2.9 W 7 11 4 6 1014.5 1012.1 19.0
19/08:30am 21.7 23.2 18.9 84 1.8 NW 9 15 5 8 1014.7 1012.3 19.0
19/08:00am 20.3 22.0 18.4 89 1.2 W 7 9 4 5 1014.8 1012.4 19.0
19/07:30am 19.8 21.3 18.1 90 1.1 W 7 9 4 5 1014.5 1012.1 19.0
19/07:00am 19.4 22.2 17.9 91 0.9 CALM 0 6 0 3 1014.4 1012.0 19.0
19/06:30am 19.1 21.9 17.9 93 0.8 CALM 0 0 0 0 1014.2 1011.8 19.0
19/06:00am 19.0 21.6 18.3 96 0.4 WSW 2 6 1 3 1014.2 1011.8 19.0
19/05:30am 18.9 21.8 18.2 96 0.4 CALM 0 0 0 0 1013.8 1011.5 19.0
19/05:00am 18.7 20.4 18.0 96 0.4 N 6 6 3 3 1013.5 1011.2 18.8
19/04:30am 18.8 20.3 18.1 96 0.4 NNW 7 9 4 5 1013.7 1011.4 18.4
19/04:00am 18.9 20.6 18.1 95 0.5 WNW 6 7 3 4 1013.7 1011.4 17.8
19/03:30am 19.1 20.3 18.3 95 0.5 W 9 11 5 6 1014.0 1011.6 17.0
19/03:00am 19.1 22.0 18.3 95 0.5 CALM 0 0 0 0 1013.8 1011.5 16.0
19/02:30am 19.1 22.0 18.3 95 0.5 CALM 0 0 0 0 1014.0 1011.6 15.0
19/02:00am 19.1 20.7 18.3 95 0.5 NW 7 11 4 6 1014.4 1012.0 13.8
19/01:30am 19.3 22.2 18.1 93 0.8 CALM 0 4 0 2 1014.5 1012.1 11.0
19/01:00am 19.3 22.1 18.0 92 0.8 CALM 0 0 0 0 1014.3 1011.9 10.0
19/12:30am 19.5 21.8 17.8 90 1.1 SW 2 6 1 3 1014.5 1012.1 9.6
19/12:00am 19.7 21.1 17.7 88 1.3 WSW 7 11 4 6 1015.1 1012.8 9.4
 
Date/Time
EST
Temp
°C
App
Temp
°C
Dew
Point
Rel
Hum
%
Delta-T
°C
Wind Press
QNH
hPa
Press
MSL
hPa
Rain
since 9 am
mm
Dir
 
Spd
km/h
Gust
km/h
Spd
kts
Gust
kts
18/11:30pm 20.6 21.0 19.1 91 1.0 WNW 15 20 8 11 1015.5 1013.2 8.2
18/11:00pm 20.7 23.2 19.0 90 1.1 N 4 7 2 4 1015.2 1012.9 7.6
18/10:30pm 21.0 23.9 19.1 89 1.2 NNE 2 7 1 4 1014.7 1012.3 7.4
18/10:00pm 21.2 23.2 18.8 86 1.5 ENE 6 9 3 5 1014.2 1011.8 7.0
18/09:30pm 21.2 23.4 19.3 89 1.2 ESE 6 9 3 5 1013.5 1011.2 7.0
18/09:00pm 21.4 23.1 19.3 88 1.4 S 9 11 5 6 1013.2 1010.9 7.0
18/08:30pm 21.3 22.3 19.4 89 1.2 SSW 13 17 7 9 1013.1 1010.8 7.0
18/08:00pm 21.1 23.5 19.6 91 1.0 SSW 6 11 3 6 1013.1 1010.8 7.0
18/07:30pm 21.2 22.3 19.7 91 1.0 SSW 13 17 7 9 1013.0 1010.7 7.0
18/07:00pm 21.0 21.3 19.6 92 0.9 SSW 17 20 9 11 1012.8 1010.4 6.8
18/06:30pm 21.0 20.3 19.6 92 0.9 SW 22 32 12 17 1013.4 1011.1 6.4
18/06:00pm 21.4 21.2 19.7 90 1.1 WSW 20 32 11 17 1014.0 1011.6 2.6
18/05:30pm 22.5 19.9 19.5 83 1.9 SW 32 50 17 27 1011.9 1009.5 0.6
18/05:14pm 24.7 22.5 18.6 69 3.9 SW 28 54 15 29 1011.5 1009.1 0.0
18/05:03pm 27.3 26.5 17.2 54 6.4 W 17 43 9 23 1010.2 1007.8 0.0
18/05:00pm 29.6 29.2 16.1 44 8.5 WNW 13 17 7 9 1009.8 1007.4 0.0
18/04:30pm 30.7 28.9 15.5 39 9.6 NW 19 22 10 12 1009.1 1006.7 0.0
18/04:00pm 31.6 29.8 15.5 37 10.2 NW 19 26 10 14 1008.3 1005.9 0.0
18/03:30pm 31.5 29.1 15.5 38 10.1 NW 22 30 12 16 1008.3 1005.9 0.0
18/03:00pm 31.9 29.6 15.8 38 10.2 NW 22 30 12 16 1008.3 1005.9 0.0
18/02:30pm 32.7 31.3 16.9 38 10.2 NNW 20 35 11 19 1008.1 1005.7 0.0
18/02:00pm 32.8 30.0 15.3 34 11.1 NNW 24 35 13 19 1008.5 1006.1 0.0
18/01:30pm 33.5 30.8 15.5 34 11.4 NNW 24 41 13 22 1009.1 1006.7 0.0
18/01:00pm 33.2 30.1 15.7 35 11.1 NW 26 43 14 23 1010.0 1007.6 0.0
18/12:30pm 32.5 30.4 16.3 37 10.4 N 22 35 12 19 1010.4 1008.0 0.0
18/12:00pm 32.1 29.9 16.8 40 9.9 NNW 24 35 13 19 1010.9 1008.6 0.0
18/11:30am 30.8 28.9 15.2 38 9.8 N 19 28 10 15 1011.5 1009.1 0.0
18/11:00am 31.0 28.1 16.2 41 9.4 NNW 26 35 14 19 1012.0 1009.6 0.0
18/10:30am 30.7 29.3 17.0 43 8.8 N 20 32 11 17 1012.5 1010.1 0.0
18/10:00am 29.4 29.4 18.2 51 7.3 NNE 15 24 8 13 1012.9 1010.6 0.0
18/09:30am 28.5 29.6 18.9 56 6.3 NNE 11 19 6 10 1013.1 1010.8 0.0
18/09:00am 28.0 28.8 19.0 58 5.9 N 13 17 7 9 1013.5 1011.2 19.4
18/08:30am 26.8 26.6 18.6 60 5.3 NNE 17 28 9 15 1013.3 1011.0 19.4
18/08:00am 26.1 26.5 19.0 65 4.6 NNE 15 24 8 13 1013.4 1011.1 19.4
18/07:30am 25.7 26.8 17.9 62 5.0 NNE 9 13 5 7 1013.3 1011.0 19.4
18/07:00am 24.3 26.7 18.0 68 4.0 W 2 7 1 4 1013.2 1010.9 19.4
18/06:30am 22.3 24.7 17.0 72 3.3 CALM 0 0 0 0 1012.9 1010.6 19.4
18/06:00am 21.2 22.5 17.0 77 2.6 ESE 6 9 3 5 1012.5 1010.1 19.4
18/05:30am 19.6 19.5 15.9 79 2.2 E 11 15 6 8 1012.0 1009.6 19.4
18/05:00am 19.1 19.0 16.0 82 1.9 E 11 15 6 8 1012.0 1009.6 19.4
18/04:30am 18.1 18.0 16.1 88 1.2 ESE 11 15 6 8 1011.8 1009.4 19.4
18/04:00am 18.1 18.5 16.4 90 1.0 SE 9 13 5 7 1011.6 1009.2 19.4
18/03:30am 18.3 19.4 16.6 90 1.0 ESE 6 11 3 6 1010.5 1008.1 19.4
18/03:00am 18.8 21.0 16.4 86 1.5 CALM 0 0 0 0 1010.7 1008.3 19.4
18/02:30am 19.3 21.7 17.1 87 1.4 CALM 0 0 0 0 1010.5 1008.1 19.4
18/02:00am 19.3 21.4 17.1 87 1.4 ENE 2 6 1 3 1010.8 1008.4 19.4
18/01:30am 19.1 21.2 17.1 88 1.2 ENE 2 7 1 4 1010.8 1008.4 19.4
18/01:00am 19.2 21.7 17.2 88 1.2 CALM 0 0 0 0 1011.6 1009.2 19.4
18/12:30am 19.4 20.5 16.6 84 1.7 NE 6 9 3 5 1011.2 1008.9 19.4
18/12:00am 19.3 19.1 15.8 80 2.1 NNW 11 13 6 7 1011.3 1009.0 19.4
 
Date/Time
EST
Temp
°C
App
Temp
°C
Dew
Point
Rel
Hum
%
Delta-T
°C
Wind Press
QNH
hPa
Press
MSL
hPa
Rain
since 9 am
mm
Dir
 
Spd
km/h
Gust
km/h
Spd
kts
Gust
kts
17/11:30pm 19.7 19.3 16.2 80 2.1 NNW 13 15 7 8 1011.5 1009.1 19.4
17/11:00pm 20.7 20.6 16.1 75 2.8 NW 11 17 6 9 1011.5 1009.1 19.4
17/10:30pm 21.5 21.6 15.6 69 3.6 NNE 9 20 5 11 1012.0 1009.6 19.4
17/10:00pm 22.6 21.1 16.4 68 3.8 N 19 26 10 14 1011.6 1009.2 19.4
17/09:30pm 22.0 23.6 17.8 77 2.7 E 6 7 3 4 1010.9 1008.6 19.4
17/09:00pm 22.7 24.1 17.4 72 3.3 NE 6 11 3 6 1009.9 1007.5 19.4
17/08:30pm 23.5 24.6 16.5 65 4.4 NE 6 11 3 6 1009.7 1007.3 19.4
17/08:00pm 22.2 22.9 17.1 73 3.2 SSE 9 11 5 6 1008.8 1006.5 19.4
17/07:30pm 25.2 25.3 15.5 55 6.0 N 9 15 5 8 1007.8 1005.4 19.4
17/07:00pm 22.7 23.3 17.8 74 3.1 NNE 11 20 6 11 1008.2 1005.8 19.2
17/06:30pm 23.1 22.1 16.6 67 4.0 E 17 32 9 17 1008.8 1006.5 19.2
17/06:00pm 23.1 21.1 19.1 78 2.6 NE 28 78 15 42 1009.5 1007.1 15.0
17/05:57pm 22.7 17.9 18.5 77 2.7 SE 41 83 22 45 1009.5 1007.1 14.6
17/05:53pm 17.2 8.5 15.9 92 0.8 S 56 115 30 62 1010.3 1007.9 12.0
17/05:47pm 16.1 9.6 9.1 63 3.7 SSW 33 115 18 62 1008.3 1005.9 3.0
17/05:46pm 17.7 12.4 8.6 55 4.8 SW 26 115 14 62 1007.9 1005.5 0.8
17/05:45pm 27.6 25.8 15.9 49 7.3 SW 20 63 11 34 1007.9 1005.5 0.0
17/05:30pm 31.1 29.5 15.1 38 10.0 WNW 17 28 9 15 1006.9 1004.5 0.0
17/05:00pm 32.2 30.5 14.8 35 10.9 NNW 17 24 9 13 1005.7 1003.3 0.0
17/04:30pm 32.8 32.9 16.6 38 10.4 NW 11 17 6 9 1005.7 1003.3 0.0
17/04:00pm 34.1 32.2 14.1 30 12.5 NW 17 24 9 13 1005.9 1003.5 0.0
17/03:30pm 35.7 34.1 16.4 31 12.5 NW 20 28 11 15 1005.9 1003.5 0.0
17/03:00pm 35.3 33.4 15.1 30 12.8 NW 19 24 10 13 1006.1 1003.7 0.0
17/02:30pm 35.1 33.3 15.4 30 12.5 WNW 19 32 10 17 1006.8 1004.4 0.0
17/02:00pm 35.1 32.9 14.4 29 13.0 WNW 19 30 10 16 1007.2 1004.8 0.0
17/01:30pm 34.7 32.6 14.6 30 12.6 NW 19 28 10 15 1007.6 1005.2 0.0
17/01:00pm 34.7 32.4 13.0 27 13.4 WSW 17 28 9 15 1007.8 1005.4 0.0
17/12:30pm 34.3 32.4 14.2 29 12.5 WNW 17 24 9 13 1008.2 1005.8 0.0
17/12:00pm 33.5 32.3 17.6 38 10.4 NNW 20 30 11 16 1008.6 1006.2 0.0
17/11:30am 32.5 31.1 17.9 41 9.5 NW 22 35 12 19 1008.9 1006.6 0.0
17/11:00am 31.3 30.2 17.2 42 9.1 NNW 19 28 10 15 1009.3 1006.9 0.0
17/10:30am 32.0 30.9 17.8 42 9.3 NNW 20 28 11 15 1009.6 1007.2 0.0
17/10:00am 31.0 29.9 17.3 43 8.9 NW 19 28 10 15 1009.8 1007.4 0.0
17/09:30am 30.2 28.9 17.3 46 8.3 NNW 20 32 11 17 1009.8 1007.4 0.0
17/09:00am 29.6 29.0 18.4 51 7.3 NNW 19 26 10 14 1009.8 1007.4 0.0
17/08:30am 28.2 28.0 16.8 50 7.2 N 13 20 7 11 1010.0 1007.6 0.0
17/08:00am 27.2 27.2 18.2 58 5.8 NNW 15 19 8 10 1010.0 1007.6 0.0
17/07:30am 25.9 27.3 18.6 64 4.7 NNW 9 13 5 7 1010.0 1007.6 0.0
17/07:00am 23.8 25.9 18.0 70 3.7 NW 4 7 2 4 1010.0 1007.6 0.0

Other Formats:

Comma delimited format used in spreadsheet applications
http://www.bom.gov.au/fwo/IDQ60801/IDQ60801.94549.axf

JavaScript Object Notation format (JSON) in row-major order
http://www.bom.gov.au/fwo/IDQ60801/IDQ60801.94549.json